sensor_id;sensor_type;location;lat;lon;timestamp;temperature;humidity
15983;DHT22;14442;50.196;8.096;2023-07-31T00:00:10;22.10;63.50
15983;DHT22;14442;50.196;8.096;2023-07-31T00:02:38;22.10;63.60
15983;DHT22;14442;50.196;8.096;2023-07-31T00:05:05;22.10;63.70
15983;DHT22;14442;50.196;8.096;2023-07-31T00:07:32;22.10;63.70
15983;DHT22;14442;50.196;8.096;2023-07-31T00:10:00;22.00;63.60
15983;DHT22;14442;50.196;8.096;2023-07-31T00:12:28;22.00;63.60
15983;DHT22;14442;50.196;8.096;2023-07-31T00:14:54;22.00;63.60
15983;DHT22;14442;50.196;8.096;2023-07-31T00:17:21;22.10;63.70
15983;DHT22;14442;50.196;8.096;2023-07-31T00:19:48;22.00;63.60
15983;DHT22;14442;50.196;8.096;2023-07-31T00:22:16;22.00;63.70
15983;DHT22;14442;50.196;8.096;2023-07-31T00:24:43;22.00;63.70
15983;DHT22;14442;50.196;8.096;2023-07-31T00:27:11;22.00;63.70
15983;DHT22;14442;50.196;8.096;2023-07-31T00:29:37;22.00;63.70
15983;DHT22;14442;50.196;8.096;2023-07-31T00:32:05;22.00;63.70
15983;DHT22;14442;50.196;8.096;2023-07-31T00:34:32;22.00;63.70
15983;DHT22;14442;50.196;8.096;2023-07-31T00:36:59;22.00;63.80
15983;DHT22;14442;50.196;8.096;2023-07-31T00:39:25;22.00;63.80
15983;DHT22;14442;50.196;8.096;2023-07-31T00:41:52;22.00;63.70
15983;DHT22;14442;50.196;8.096;2023-07-31T00:44:20;22.00;63.60
15983;DHT22;14442;50.196;8.096;2023-07-31T00:46:47;22.00;63.60
15983;DHT22;14442;50.196;8.096;2023-07-31T00:49:13;22.00;63.70
15983;DHT22;14442;50.196;8.096;2023-07-31T00:51:41;22.00;63.70
15983;DHT22;14442;50.196;8.096;2023-07-31T00:54:07;22.00;63.70
15983;DHT22;14442;50.196;8.096;2023-07-31T00:56:34;22.00;63.70
15983;DHT22;14442;50.196;8.096;2023-07-31T00:59:01;22.00;63.80
15983;DHT22;14442;50.196;8.096;2023-07-31T01:01:29;22.00;63.80
15983;DHT22;14442;50.196;8.096;2023-07-31T01:03:56;22.00;63.80
15983;DHT22;14442;50.196;8.096;2023-07-31T01:06:29;22.00;63.90
15983;DHT22;14442;50.196;8.096;2023-07-31T01:09:02;22.00;63.90
15983;DHT22;14442;50.196;8.096;2023-07-31T01:11:30;22.00;64.00
15983;DHT22;14442;50.196;8.096;2023-07-31T01:13:58;22.00;64.00
15983;DHT22;14442;50.196;8.096;2023-07-31T01:16:25;22.00;64.10
15983;DHT22;14442;50.196;8.096;2023-07-31T01:18:53;22.00;64.10
15983;DHT22;14442;50.196;8.096;2023-07-31T01:21:37;22.00;64.10
15983;DHT22;14442;50.196;8.096;2023-07-31T01:24:22;22.00;64.10
15983;DHT22;14442;50.196;8.096;2023-07-31T01:26:57;21.90;64.10
15983;DHT22;14442;50.196;8.096;2023-07-31T01:29:32;21.90;64.10
15983;DHT22;14442;50.196;8.096;2023-07-31T01:32:01;22.00;64.20
15983;DHT22;14442;50.196;8.096;2023-07-31T01:34:29;22.00;64.10
15983;DHT22;14442;50.196;8.096;2023-07-31T01:36:56;22.00;64.30
15983;DHT22;14442;50.196;8.096;2023-07-31T01:39:23;21.90;64.20
15983;DHT22;14442;50.196;8.096;2023-07-31T01:41:50;22.00;64.20
15983;DHT22;14442;50.196;8.096;2023-07-31T01:44:18;22.00;64.30
15983;DHT22;14442;50.196;8.096;2023-07-31T01:46:45;21.90;64.20
15983;DHT22;14442;50.196;8.096;2023-07-31T01:49:12;21.90;64.10
15983;DHT22;14442;50.196;8.096;2023-07-31T01:51:39;21.90;64.20
15983;DHT22;14442;50.196;8.096;2023-07-31T01:54:05;21.90;64.00
15983;DHT22;14442;50.196;8.096;2023-07-31T01:56:32;21.90;63.90
15983;DHT22;14442;50.196;8.096;2023-07-31T01:58:59;21.90;64.00
15983;DHT22;14442;50.196;8.096;2023-07-31T02:01:27;21.90;64.20
15983;DHT22;14442;50.196;8.096;2023-07-31T02:03:53;21.90;64.00
15983;DHT22;14442;50.196;8.096;2023-07-31T02:06:20;21.90;64.10
15983;DHT22;14442;50.196;8.096;2023-07-31T02:08:48;21.90;64.20
15983;DHT22;14442;50.196;8.096;2023-07-31T02:11:14;21.90;64.20
15983;DHT22;14442;50.196;8.096;2023-07-31T02:13:41;21.90;64.20
15983;DHT22;14442;50.196;8.096;2023-07-31T02:16:08;21.90;64.20
15983;DHT22;14442;50.196;8.096;2023-07-31T02:18:36;21.90;64.20
15983;DHT22;14442;50.196;8.096;2023-07-31T02:21:03;21.90;64.10
15983;DHT22;14442;50.196;8.096;2023-07-31T02:23:29;21.90;64.20
15983;DHT22;14442;50.196;8.096;2023-07-31T02:25:56;21.90;64.10
15983;DHT22;14442;50.196;8.096;2023-07-31T02:28:23;21.90;64.10
15983;DHT22;14442;50.196;8.096;2023-07-31T02:30:50;21.90;64.00
15983;DHT22;14442;50.196;8.096;2023-07-31T02:33:17;21.90;64.00
15983;DHT22;14442;50.196;8.096;2023-07-31T02:35:45;21.90;63.90
15983;DHT22;14442;50.196;8.096;2023-07-31T02:38:12;21.90;63.90
15983;DHT22;14442;50.196;8.096;2023-07-31T02:40:39;21.90;63.90
15983;DHT22;14442;50.196;8.096;2023-07-31T02:43:06;21.90;63.90
15983;DHT22;14442;50.196;8.096;2023-07-31T02:45:33;21.90;63.90
15983;DHT22;14442;50.196;8.096;2023-07-31T02:48:00;21.90;63.90
15983;DHT22;14442;50.196;8.096;2023-07-31T02:50:27;21.90;63.90
15983;DHT22;14442;50.196;8.096;2023-07-31T02:52:55;21.90;63.90
15983;DHT22;14442;50.196;8.096;2023-07-31T02:55:22;21.90;63.90
15983;DHT22;14442;50.196;8.096;2023-07-31T02:57:48;21.90;63.90
15983;DHT22;14442;50.196;8.096;2023-07-31T03:00:17;21.90;63.90
15983;DHT22;14442;50.196;8.096;2023-07-31T03:02:44;21.90;63.80
15983;DHT22;14442;50.196;8.096;2023-07-31T03:05:11;21.90;63.70
15983;DHT22;14442;50.196;8.096;2023-07-31T03:07:37;21.90;63.80
15983;DHT22;14442;50.196;8.096;2023-07-31T03:10:07;21.90;63.80
15983;DHT22;14442;50.196;8.096;2023-07-31T03:12:34;21.90;63.80
15983;DHT22;14442;50.196;8.096;2023-07-31T03:15:00;21.90;63.80
15983;DHT22;14442;50.196;8.096;2023-07-31T03:17:27;21.90;63.80
15983;DHT22;14442;50.196;8.096;2023-07-31T03:19:54;21.90;63.80
15983;DHT22;14442;50.196;8.096;2023-07-31T03:22:21;21.90;63.80
15983;DHT22;14442;50.196;8.096;2023-07-31T03:24:47;21.90;63.80
15983;DHT22;14442;50.196;8.096;2023-07-31T03:27:15;21.80;63.70
15983;DHT22;14442;50.196;8.096;2023-07-31T03:29:42;21.90;63.90
15983;DHT22;14442;50.196;8.096;2023-07-31T03:32:09;21.80;63.70
15983;DHT22;14442;50.196;8.096;2023-07-31T03:34:36;21.80;63.70
15983;DHT22;14442;50.196;8.096;2023-07-31T03:37:03;21.80;63.70
15983;DHT22;14442;50.196;8.096;2023-07-31T03:39:31;21.80;63.70
15983;DHT22;14442;50.196;8.096;2023-07-31T03:41:57;21.80;63.70
15983;DHT22;14442;50.196;8.096;2023-07-31T03:44:26;21.80;63.70
15983;DHT22;14442;50.196;8.096;2023-07-31T03:46:52;21.80;63.70
15983;DHT22;14442;50.196;8.096;2023-07-31T03:49:19;21.80;63.70
15983;DHT22;14442;50.196;8.096;2023-07-31T03:51:46;21.80;63.70
15983;DHT22;14442;50.196;8.096;2023-07-31T03:54:12;21.80;63.70
15983;DHT22;14442;50.196;8.096;2023-07-31T03:56:39;21.80;63.70
15983;DHT22;14442;50.196;8.096;2023-07-31T03:59:06;21.80;63.70
15983;DHT22;14442;50.196;8.096;2023-07-31T04:01:34;21.80;63.60
15983;DHT22;14442;50.196;8.096;2023-07-31T04:04:01;21.80;63.70
15983;DHT22;14442;50.196;8.096;2023-07-31T04:06:28;21.80;63.70
15983;DHT22;14442;50.196;8.096;2023-07-31T04:08:54;21.80;63.60
15983;DHT22;14442;50.196;8.096;2023-07-31T04:11:21;21.80;63.70
15983;DHT22;14442;50.196;8.096;2023-07-31T04:13:48;21.80;63.80
15983;DHT22;14442;50.196;8.096;2023-07-31T04:16:14;21.80;63.70
15983;DHT22;14442;50.196;8.096;2023-07-31T04:18:42;21.80;63.80
15983;DHT22;14442;50.196;8.096;2023-07-31T04:21:09;21.80;63.90
15983;DHT22;14442;50.196;8.096;2023-07-31T04:23:36;21.80;63.90
15983;DHT22;14442;50.196;8.096;2023-07-31T04:26:03;21.80;63.90
15983;DHT22;14442;50.196;8.096;2023-07-31T04:28:29;21.80;63.90
15983;DHT22;14442;50.196;8.096;2023-07-31T04:30:57;21.80;64.00
15983;DHT22;14442;50.196;8.096;2023-07-31T04:33:23;21.80;64.00
15983;DHT22;14442;50.196;8.096;2023-07-31T04:35:52;21.80;64.00
15983;DHT22;14442;50.196;8.096;2023-07-31T04:38:19;21.80;64.10
15983;DHT22;14442;50.196;8.096;2023-07-31T04:40:46;21.80;64.10
15983;DHT22;14442;50.196;8.096;2023-07-31T04:43:13;21.80;64.20
15983;DHT22;14442;50.196;8.096;2023-07-31T04:45:42;21.80;64.10
15983;DHT22;14442;50.196;8.096;2023-07-31T04:48:09;21.80;64.10
15983;DHT22;14442;50.196;8.096;2023-07-31T04:50:36;21.80;64.20
15983;DHT22;14442;50.196;8.096;2023-07-31T04:53:04;21.80;64.20
15983;DHT22;14442;50.196;8.096;2023-07-31T04:55:30;21.80;64.20
15983;DHT22;14442;50.196;8.096;2023-07-31T04:57:58;21.80;64.20
15983;DHT22;14442;50.196;8.096;2023-07-31T05:00:24;21.80;64.20
15983;DHT22;14442;50.196;8.096;2023-07-31T05:02:51;21.80;64.20
15983;DHT22;14442;50.196;8.096;2023-07-31T05:05:18;21.80;64.20
15983;DHT22;14442;50.196;8.096;2023-07-31T05:07:45;21.80;64.30
15983;DHT22;14442;50.196;8.096;2023-07-31T05:10:13;21.80;64.20
15983;DHT22;14442;50.196;8.096;2023-07-31T05:12:39;21.80;64.10
15983;DHT22;14442;50.196;8.096;2023-07-31T05:15:07;21.80;64.10
15983;DHT22;14442;50.196;8.096;2023-07-31T05:17:34;21.80;64.20
15983;DHT22;14442;50.196;8.096;2023-07-31T05:20:00;21.80;64.30
15983;DHT22;14442;50.196;8.096;2023-07-31T05:22:27;21.80;64.30
15983;DHT22;14442;50.196;8.096;2023-07-31T05:24:54;21.80;64.40
15983;DHT22;14442;50.196;8.096;2023-07-31T05:27:22;21.80;64.30
15983;DHT22;14442;50.196;8.096;2023-07-31T05:29:48;21.80;64.20
15983;DHT22;14442;50.196;8.096;2023-07-31T05:32:15;21.80;64.20
15983;DHT22;14442;50.196;8.096;2023-07-31T05:34:42;21.70;64.10
15983;DHT22;14442;50.196;8.096;2023-07-31T05:37:10;21.80;64.30
15983;DHT22;14442;50.196;8.096;2023-07-31T05:39:37;21.70;64.10
15983;DHT22;14442;50.196;8.096;2023-07-31T05:42:05;21.80;64.40
15983;DHT22;14442;50.196;8.096;2023-07-31T05:44:33;21.80;64.20
15983;DHT22;14442;50.196;8.096;2023-07-31T05:46:59;21.80;64.20
15983;DHT22;14442;50.196;8.096;2023-07-31T05:49:26;21.80;64.20
15983;DHT22;14442;50.196;8.096;2023-07-31T05:51:53;21.80;64.40
15983;DHT22;14442;50.196;8.096;2023-07-31T05:54:19;21.70;64.30
15983;DHT22;14442;50.196;8.096;2023-07-31T05:56:46;21.80;64.50
15983;DHT22;14442;50.196;8.096;2023-07-31T05:59:13;21.80;64.40
15983;DHT22;14442;50.196;8.096;2023-07-31T06:01:41;21.80;64.50
15983;DHT22;14442;50.196;8.096;2023-07-31T06:04:08;21.80;64.60
15983;DHT22;14442;50.196;8.096;2023-07-31T06:06:34;21.80;64.50
15983;DHT22;14442;50.196;8.096;2023-07-31T06:09:01;21.80;64.70
15983;DHT22;14442;50.196;8.096;2023-07-31T06:11:29;21.80;64.60
15983;DHT22;14442;50.196;8.096;2023-07-31T06:13:55;21.80;64.60
15983;DHT22;14442;50.196;8.096;2023-07-31T06:16:23;21.80;64.60
15983;DHT22;14442;50.196;8.096;2023-07-31T06:18:51;21.80;64.70
15983;DHT22;14442;50.196;8.096;2023-07-31T06:21:18;21.80;64.70
15983;DHT22;14442;50.196;8.096;2023-07-31T06:23:44;21.80;64.60
15983;DHT22;14442;50.196;8.096;2023-07-31T06:26:11;21.90;64.40
15983;DHT22;14442;50.196;8.096;2023-07-31T06:28:38;21.90;64.50
15983;DHT22;14442;50.196;8.096;2023-07-31T06:31:04;21.80;64.20
15983;DHT22;14442;50.196;8.096;2023-07-31T06:33:31;21.80;64.30
15983;DHT22;14442;50.196;8.096;2023-07-31T06:35:59;21.80;64.10
15983;DHT22;14442;50.196;8.096;2023-07-31T06:38:27;21.80;64.10
15983;DHT22;14442;50.196;8.096;2023-07-31T06:40:54;21.80;64.80
15983;DHT22;14442;50.196;8.096;2023-07-31T06:43:21;21.80;64.00
15983;DHT22;14442;50.196;8.096;2023-07-31T06:45:48;21.80;64.00
15983;DHT22;14442;50.196;8.096;2023-07-31T06:48:16;21.80;64.00
15983;DHT22;14442;50.196;8.096;2023-07-31T06:50:43;21.80;64.00
15983;DHT22;14442;50.196;8.096;2023-07-31T06:53:11;21.80;64.70
15983;DHT22;14442;50.196;8.096;2023-07-31T06:55:38;21.80;64.00
15983;DHT22;14442;50.196;8.096;2023-07-31T06:58:04;21.80;64.00
15983;DHT22;14442;50.196;8.096;2023-07-31T07:00:31;21.90;64.00
15983;DHT22;14442;50.196;8.096;2023-07-31T07:02:58;21.90;64.10
15983;DHT22;14442;50.196;8.096;2023-07-31T07:05:25;21.90;64.00
15983;DHT22;14442;50.196;8.096;2023-07-31T07:07:52;21.80;63.90
15983;DHT22;14442;50.196;8.096;2023-07-31T07:10:20;21.80;63.90
15983;DHT22;14442;50.196;8.096;2023-07-31T07:12:47;21.80;63.90
15983;DHT22;14442;50.196;8.096;2023-07-31T07:15:14;21.80;63.80
15983;DHT22;14442;50.196;8.096;2023-07-31T07:17:41;21.80;63.90
15983;DHT22;14442;50.196;8.096;2023-07-31T07:20:08;21.90;64.00
15983;DHT22;14442;50.196;8.096;2023-07-31T07:22:35;21.90;64.00
15983;DHT22;14442;50.196;8.096;2023-07-31T07:25:03;21.90;64.00
15983;DHT22;14442;50.196;8.096;2023-07-31T07:27:31;22.00;64.20
15983;DHT22;14442;50.196;8.096;2023-07-31T07:29:58;22.00;64.20
15983;DHT22;14442;50.196;8.096;2023-07-31T07:32:25;22.00;64.50
15983;DHT22;14442;50.196;8.096;2023-07-31T07:34:52;22.00;64.50
15983;DHT22;14442;50.196;8.096;2023-07-31T07:37:18;22.00;64.70
15983;DHT22;14442;50.196;8.096;2023-07-31T07:39:45;22.00;64.70
15983;DHT22;14442;50.196;8.096;2023-07-31T07:42:12;22.00;64.80
15983;DHT22;14442;50.196;8.096;2023-07-31T07:44:40;22.00;64.80
15983;DHT22;14442;50.196;8.096;2023-07-31T07:47:06;22.00;64.90
15983;DHT22;14442;50.196;8.096;2023-07-31T07:49:33;22.00;64.90
15983;DHT22;14442;50.196;8.096;2023-07-31T07:52:00;22.00;65.00
15983;DHT22;14442;50.196;8.096;2023-07-31T07:54:27;22.00;65.00
15983;DHT22;14442;50.196;8.096;2023-07-31T07:56:54;22.10;65.20
15983;DHT22;14442;50.196;8.096;2023-07-31T07:59:21;22.10;65.20
15983;DHT22;14442;50.196;8.096;2023-07-31T08:01:49;22.10;65.20
15983;DHT22;14442;50.196;8.096;2023-07-31T08:04:15;22.10;65.30
15983;DHT22;14442;50.196;8.096;2023-07-31T08:06:42;22.10;65.30
15983;DHT22;14442;50.196;8.096;2023-07-31T08:09:09;22.10;65.90
15983;DHT22;14442;50.196;8.096;2023-07-31T08:11:36;22.10;65.30
15983;DHT22;14442;50.196;8.096;2023-07-31T08:14:02;22.00;65.00
15983;DHT22;14442;50.196;8.096;2023-07-31T08:16:29;22.10;65.00
15983;DHT22;14442;50.196;8.096;2023-07-31T08:18:57;22.10;65.00
15983;DHT22;14442;50.196;8.096;2023-07-31T08:21:24;22.00;64.80
15983;DHT22;14442;50.196;8.096;2023-07-31T08:23:51;22.10;64.80
15983;DHT22;14442;50.196;8.096;2023-07-31T08:26:18;22.10;64.60
15983;DHT22;14442;50.196;8.096;2023-07-31T08:28:44;22.10;64.50
15983;DHT22;14442;50.196;8.096;2023-07-31T08:31:11;22.10;64.50
15983;DHT22;14442;50.196;8.096;2023-07-31T08:33:38;22.10;64.50
15983;DHT22;14442;50.196;8.096;2023-07-31T08:36:07;22.10;64.50
15983;DHT22;14442;50.196;8.096;2023-07-31T08:38:33;22.10;64.60
15983;DHT22;14442;50.196;8.096;2023-07-31T08:41:00;22.00;64.50
15983;DHT22;14442;50.196;8.096;2023-07-31T08:43:29;22.10;65.10
15983;DHT22;14442;50.196;8.096;2023-07-31T08:45:57;22.10;64.40
15983;DHT22;14442;50.196;8.096;2023-07-31T08:48:24;22.10;64.60
15983;DHT22;14442;50.196;8.096;2023-07-31T08:50:51;22.10;64.40
15983;DHT22;14442;50.196;8.096;2023-07-31T08:53:20;22.20;64.60
15983;DHT22;14442;50.196;8.096;2023-07-31T08:55:47;22.10;64.40
15983;DHT22;14442;50.196;8.096;2023-07-31T08:58:15;22.10;64.40
15983;DHT22;14442;50.196;8.096;2023-07-31T09:00:43;22.20;64.60
15983;DHT22;14442;50.196;8.096;2023-07-31T09:03:13;22.20;64.40
15983;DHT22;14442;50.196;8.096;2023-07-31T09:05:43;22.10;64.20
15983;DHT22;14442;50.196;8.096;2023-07-31T09:08:10;22.10;64.50
15983;DHT22;14442;50.196;8.096;2023-07-31T09:10:41;22.10;64.50
15983;DHT22;14442;50.196;8.096;2023-07-31T09:13:09;22.10;64.40
15983;DHT22;14442;50.196;8.096;2023-07-31T09:15:36;22.10;64.30
15983;DHT22;14442;50.196;8.096;2023-07-31T09:18:04;22.10;64.50
15983;DHT22;14442;50.196;8.096;2023-07-31T09:20:31;22.10;64.40
15983;DHT22;14442;50.196;8.096;2023-07-31T09:23:05;22.10;64.40
15983;DHT22;14442;50.196;8.096;2023-07-31T09:25:33;22.10;64.40
15983;DHT22;14442;50.196;8.096;2023-07-31T09:28:02;22.20;64.60
15983;DHT22;14442;50.196;8.096;2023-07-31T09:30:29;22.20;64.50
15983;DHT22;14442;50.196;8.096;2023-07-31T09:33:02;22.20;64.30
15983;DHT22;14442;50.196;8.096;2023-07-31T09:35:30;22.20;64.30
15983;DHT22;14442;50.196;8.096;2023-07-31T09:37:58;22.20;64.40
15983;DHT22;14442;50.196;8.096;2023-07-31T09:40:26;22.20;64.20
15983;DHT22;14442;50.196;8.096;2023-07-31T09:42:57;22.20;64.20
15983;DHT22;14442;50.196;8.096;2023-07-31T09:45:26;22.20;64.30
15983;DHT22;14442;50.196;8.096;2023-07-31T09:47:53;22.20;64.20
15983;DHT22;14442;50.196;8.096;2023-07-31T09:50:21;22.20;64.20
15983;DHT22;14442;50.196;8.096;2023-07-31T09:52:48;22.20;64.40
15983;DHT22;14442;50.196;8.096;2023-07-31T09:55:15;22.20;64.40
15983;DHT22;14442;50.196;8.096;2023-07-31T09:57:44;22.20;64.40
15983;DHT22;14442;50.196;8.096;2023-07-31T10:00:12;22.20;64.40
15983;DHT22;14442;50.196;8.096;2023-07-31T10:02:41;22.10;64.30
15983;DHT22;14442;50.196;8.096;2023-07-31T10:05:08;22.10;64.30
15983;DHT22;14442;50.196;8.096;2023-07-31T10:07:38;22.10;64.30
15983;DHT22;14442;50.196;8.096;2023-07-31T10:10:07;22.10;64.30
15983;DHT22;14442;50.196;8.096;2023-07-31T10:12:35;22.10;64.20
15983;DHT22;14442;50.196;8.096;2023-07-31T10:15:03;22.00;64.10
15983;DHT22;14442;50.196;8.096;2023-07-31T10:17:30;22.00;64.10
15983;DHT22;14442;50.196;8.096;2023-07-31T10:19:59;22.10;64.20
15983;DHT22;14442;50.196;8.096;2023-07-31T10:22:29;22.00;64.10
15983;DHT22;14442;50.196;8.096;2023-07-31T10:24:58;22.00;64.00
15983;DHT22;14442;50.196;8.096;2023-07-31T10:27:25;22.00;64.00
15983;DHT22;14442;50.196;8.096;2023-07-31T10:29:52;22.00;63.90
15983;DHT22;14442;50.196;8.096;2023-07-31T10:32:21;22.00;63.90
15983;DHT22;14442;50.196;8.096;2023-07-31T10:34:49;22.00;63.90
15983;DHT22;14442;50.196;8.096;2023-07-31T10:37:24;22.00;63.90
15983;DHT22;14442;50.196;8.096;2023-07-31T10:39:59;22.00;63.90
15983;DHT22;14442;50.196;8.096;2023-07-31T10:42:34;22.00;63.90
15983;DHT22;14442;50.196;8.096;2023-07-31T10:45:03;22.00;63.80
15983;DHT22;14442;50.196;8.096;2023-07-31T10:47:30;22.00;63.80
15983;DHT22;14442;50.196;8.096;2023-07-31T10:50:16;22.10;63.90
15983;DHT22;14442;50.196;8.096;2023-07-31T10:52:47;22.00;63.70
15983;DHT22;14442;50.196;8.096;2023-07-31T10:55:16;22.10;63.80
15983;DHT22;14442;50.196;8.096;2023-07-31T10:57:48;22.10;63.80
15983;DHT22;14442;50.196;8.096;2023-07-31T11:00:20;22.00;63.60
15983;DHT22;14442;50.196;8.096;2023-07-31T11:02:58;22.00;63.70
15983;DHT22;14442;50.196;8.096;2023-07-31T11:05:50;22.00;63.60
15983;DHT22;14442;50.196;8.096;2023-07-31T11:08:21;22.00;63.60
15983;DHT22;14442;50.196;8.096;2023-07-31T11:10:50;22.00;63.70
15983;DHT22;14442;50.196;8.096;2023-07-31T11:13:17;22.00;63.60
15983;DHT22;14442;50.196;8.096;2023-07-31T11:15:44;22.00;63.60
15983;DHT22;14442;50.196;8.096;2023-07-31T11:18:11;22.00;63.60
15983;DHT22;14442;50.196;8.096;2023-07-31T11:20:38;22.00;63.60
15983;DHT22;14442;50.196;8.096;2023-07-31T11:23:08;22.00;63.60
15983;DHT22;14442;50.196;8.096;2023-07-31T11:25:37;22.10;63.70
15983;DHT22;14442;50.196;8.096;2023-07-31T11:28:08;22.10;63.60
15983;DHT22;14442;50.196;8.096;2023-07-31T11:30:35;22.10;63.60
15983;DHT22;14442;50.196;8.096;2023-07-31T11:33:03;22.10;63.70
15983;DHT22;14442;50.196;8.096;2023-07-31T11:35:31;22.10;63.60
15983;DHT22;14442;50.196;8.096;2023-07-31T11:37:59;22.10;63.70
15983;DHT22;14442;50.196;8.096;2023-07-31T11:40:26;22.10;63.60
15983;DHT22;14442;50.196;8.096;2023-07-31T11:42:56;22.20;63.60
15983;DHT22;14442;50.196;8.096;2023-07-31T11:45:27;22.10;63.50
15983;DHT22;14442;50.196;8.096;2023-07-31T11:47:55;22.10;63.50
15983;DHT22;14442;50.196;8.096;2023-07-31T11:50:23;22.20;63.60
15983;DHT22;14442;50.196;8.096;2023-07-31T11:52:54;22.10;63.50
15983;DHT22;14442;50.196;8.096;2023-07-31T11:55:23;22.10;63.50
15983;DHT22;14442;50.196;8.096;2023-07-31T11:57:51;22.10;63.50
15983;DHT22;14442;50.196;8.096;2023-07-31T12:00:19;22.10;63.50
15983;DHT22;14442;50.196;8.096;2023-07-31T12:02:47;22.10;63.40
15983;DHT22;14442;50.196;8.096;2023-07-31T12:05:14;22.10;63.30
15983;DHT22;14442;50.196;8.096;2023-07-31T12:07:49;22.10;63.20
15983;DHT22;14442;50.196;8.096;2023-07-31T12:10:29;22.10;63.20
15983;DHT22;14442;50.196;8.096;2023-07-31T12:12:58;22.10;63.20
15983;DHT22;14442;50.196;8.096;2023-07-31T12:15:32;22.10;63.20
15983;DHT22;14442;50.196;8.096;2023-07-31T12:18:00;22.10;63.20
15983;DHT22;14442;50.196;8.096;2023-07-31T12:20:27;22.10;63.10
15983;DHT22;14442;50.196;8.096;2023-07-31T12:22:56;22.10;63.10
15983;DHT22;14442;50.196;8.096;2023-07-31T12:25:29;22.10;63.10
15983;DHT22;14442;50.196;8.096;2023-07-31T12:27:57;22.10;63.00
15983;DHT22;14442;50.196;8.096;2023-07-31T12:30:27;22.20;62.90
15983;DHT22;14442;50.196;8.096;2023-07-31T12:32:56;22.30;63.70
15983;DHT22;14442;50.196;8.096;2023-07-31T12:35:23;22.20;62.80
15983;DHT22;14442;50.196;8.096;2023-07-31T12:37:49;22.30;62.90
15983;DHT22;14442;50.196;8.096;2023-07-31T12:40:16;22.30;62.80
15983;DHT22;14442;50.196;8.096;2023-07-31T12:42:44;22.30;62.80
15983;DHT22;14442;50.196;8.096;2023-07-31T12:45:11;22.30;62.80
15983;DHT22;14442;50.196;8.096;2023-07-31T12:47:38;22.30;62.70
15983;DHT22;14442;50.196;8.096;2023-07-31T12:50:07;22.40;62.90
15983;DHT22;14442;50.196;8.096;2023-07-31T12:52:34;22.40;62.80
15983;DHT22;14442;50.196;8.096;2023-07-31T12:55:01;22.30;62.70
15983;DHT22;14442;50.196;8.096;2023-07-31T12:57:28;22.30;62.80
15983;DHT22;14442;50.196;8.096;2023-07-31T12:59:54;22.40;63.20
15983;DHT22;14442;50.196;8.096;2023-07-31T13:02:21;22.40;63.30
15983;DHT22;14442;50.196;8.096;2023-07-31T13:04:49;22.40;63.20
15983;DHT22;14442;50.196;8.096;2023-07-31T13:07:17;22.50;63.30
15983;DHT22;14442;50.196;8.096;2023-07-31T13:09:45;22.50;63.30
15983;DHT22;14442;50.196;8.096;2023-07-31T13:12:11;22.60;63.20
15983;DHT22;14442;50.196;8.096;2023-07-31T13:14:38;22.50;63.10
15983;DHT22;14442;50.196;8.096;2023-07-31T13:17:05;22.50;63.10
15983;DHT22;14442;50.196;8.096;2023-07-31T13:19:32;22.50;63.10
15983;DHT22;14442;50.196;8.096;2023-07-31T13:21:59;22.50;63.20
15983;DHT22;14442;50.196;8.096;2023-07-31T13:24:27;22.50;63.20
15983;DHT22;14442;50.196;8.096;2023-07-31T13:26:55;22.50;63.50
15983;DHT22;14442;50.196;8.096;2023-07-31T13:29:21;22.50;63.70
15983;DHT22;14442;50.196;8.096;2023-07-31T13:31:50;22.50;63.80
15983;DHT22;14442;50.196;8.096;2023-07-31T13:34:17;22.50;64.00
15983;DHT22;14442;50.196;8.096;2023-07-31T13:36:43;22.50;64.10
15983;DHT22;14442;50.196;8.096;2023-07-31T13:39:11;22.50;64.10
15983;DHT22;14442;50.196;8.096;2023-07-31T13:41:39;22.50;64.10
15983;DHT22;14442;50.196;8.096;2023-07-31T13:44:07;22.50;64.80
15983;DHT22;14442;50.196;8.096;2023-07-31T13:46:33;22.50;64.20
15983;DHT22;14442;50.196;8.096;2023-07-31T13:49:00;22.50;64.30
15983;DHT22;14442;50.196;8.096;2023-07-31T13:51:27;22.50;64.20
15983;DHT22;14442;50.196;8.096;2023-07-31T13:53:54;22.50;64.10
15983;DHT22;14442;50.196;8.096;2023-07-31T13:56:21;22.50;64.30
15983;DHT22;14442;50.196;8.096;2023-07-31T13:58:49;22.50;64.40
15983;DHT22;14442;50.196;8.096;2023-07-31T14:01:16;22.50;64.40
15983;DHT22;14442;50.196;8.096;2023-07-31T14:03:43;22.50;64.50
15983;DHT22;14442;50.196;8.096;2023-07-31T14:06:10;22.50;64.50
15983;DHT22;14442;50.196;8.096;2023-07-31T14:08:37;22.50;64.50
15983;DHT22;14442;50.196;8.096;2023-07-31T14:11:04;22.60;64.70
15983;DHT22;14442;50.196;8.096;2023-07-31T14:13:31;22.60;64.40
15983;DHT22;14442;50.196;8.096;2023-07-31T14:15:59;22.50;64.40
15983;DHT22;14442;50.196;8.096;2023-07-31T14:18:26;22.50;64.50
15983;DHT22;14442;50.196;8.096;2023-07-31T14:20:52;22.40;64.30
15983;DHT22;14442;50.196;8.096;2023-07-31T14:23:19;22.40;64.20
15983;DHT22;14442;50.196;8.096;2023-07-31T14:25:46;22.40;64.00
15983;DHT22;14442;50.196;8.096;2023-07-31T14:28:13;22.40;63.90
15983;DHT22;14442;50.196;8.096;2023-07-31T14:30:40;22.40;63.80
15983;DHT22;14442;50.196;8.096;2023-07-31T14:33:08;22.40;63.70
15983;DHT22;14442;50.196;8.096;2023-07-31T14:35:35;22.40;63.60
15983;DHT22;14442;50.196;8.096;2023-07-31T14:38:02;22.40;63.60
15983;DHT22;14442;50.196;8.096;2023-07-31T14:40:29;22.40;63.60
15983;DHT22;14442;50.196;8.096;2023-07-31T14:42:56;22.40;63.50
15983;DHT22;14442;50.196;8.096;2023-07-31T14:45:23;22.40;63.50
15983;DHT22;14442;50.196;8.096;2023-07-31T14:47:50;22.40;63.50
15983;DHT22;14442;50.196;8.096;2023-07-31T14:50:20;22.40;63.50
15983;DHT22;14442;50.196;8.096;2023-07-31T14:52:48;22.30;63.40
15983;DHT22;14442;50.196;8.096;2023-07-31T14:55:15;22.30;63.40
15983;DHT22;14442;50.196;8.096;2023-07-31T14:57:42;22.30;63.50
15983;DHT22;14442;50.196;8.096;2023-07-31T15:00:09;22.30;63.50
15983;DHT22;14442;50.196;8.096;2023-07-31T15:02:36;22.30;63.40
15983;DHT22;14442;50.196;8.096;2023-07-31T15:05:04;22.30;63.50
15983;DHT22;14442;50.196;8.096;2023-07-31T15:07:34;22.30;63.50
15983;DHT22;14442;50.196;8.096;2023-07-31T15:10:01;22.30;63.50
15983;DHT22;14442;50.196;8.096;2023-07-31T15:12:29;22.20;63.50
15983;DHT22;14442;50.196;8.096;2023-07-31T15:14:56;22.20;63.50
15983;DHT22;14442;50.196;8.096;2023-07-31T15:17:23;22.20;63.50
15983;DHT22;14442;50.196;8.096;2023-07-31T15:19:50;22.20;63.50
15983;DHT22;14442;50.196;8.096;2023-07-31T15:22:17;22.20;63.50
15983;DHT22;14442;50.196;8.096;2023-07-31T15:24:45;22.20;63.50
15983;DHT22;14442;50.196;8.096;2023-07-31T15:27:14;22.10;63.40
15983;DHT22;14442;50.196;8.096;2023-07-31T15:29:41;22.20;63.60
15983;DHT22;14442;50.196;8.096;2023-07-31T15:32:08;22.10;63.50